createdAt,value
2019-03-17T00:01:31.128Z,6.63
2019-03-17T00:04:03.081Z,7.37
2019-03-17T00:06:35.073Z,7.43
2019-03-17T00:09:08.558Z,7.33
2019-03-17T00:11:40.445Z,7.30
2019-03-17T00:14:12.607Z,6.70
2019-03-17T00:16:44.464Z,6.87
2019-03-17T00:19:16.405Z,6.67
2019-03-17T00:21:48.363Z,6.70
2019-03-17T00:24:20.895Z,7.73
2019-03-17T00:26:52.765Z,6.73
2019-03-17T00:29:25.096Z,7.43
2019-03-17T00:31:56.968Z,8.20
2019-03-17T00:34:28.983Z,7.63
2019-03-17T00:37:00.820Z,7.63
2019-03-17T00:39:32.830Z,7.77
2019-03-17T00:42:04.675Z,7.30
2019-03-17T00:44:36.891Z,6.73
2019-03-17T00:47:10.728Z,7.90
2019-03-17T00:49:42.237Z,7.43
2019-03-17T00:52:14.098Z,7.50
2019-03-17T00:54:45.904Z,6.57
2019-03-17T00:57:17.784Z,7.13
2019-03-17T00:59:49.961Z,6.87
2019-03-17T01:02:21.814Z,8.57
2019-03-17T01:04:56.409Z,8.20
2019-03-17T01:07:27.584Z,7.30
2019-03-17T01:09:59.420Z,6.73
2019-03-17T01:12:31.274Z,6.83
2019-03-17T01:15:03.371Z,5.93
2019-03-17T01:17:35.276Z,6.73
2019-03-17T01:20:07.741Z,6.73
2019-03-17T01:22:39.563Z,6.33
2019-03-17T01:25:11.712Z,7.10
2019-03-17T01:27:43.693Z,6.77
2019-03-17T01:30:15.867Z,7.00
2019-03-17T01:32:47.736Z,7.80
2019-03-17T01:35:19.583Z,8.57
2019-03-17T01:37:51.530Z,7.20
2019-03-17T01:40:23.415Z,7.73
2019-03-17T01:42:55.264Z,8.13
2019-03-17T01:45:27.318Z,8.60
2019-03-17T01:47:59.133Z,7.63
2019-03-17T01:50:30.987Z,8.17
2019-03-17T01:53:02.810Z,7.50
2019-03-17T01:55:34.698Z,8.70
2019-03-17T01:58:06.562Z,8.37
2019-03-17T02:00:38.832Z,7.87
2019-03-17T02:03:10.754Z,8.07
2019-03-17T02:05:42.560Z,8.37
2019-03-17T02:08:14.394Z,7.77
2019-03-17T02:10:46.294Z,8.33
2019-03-17T02:13:18.121Z,8.90
2019-03-17T02:15:50.424Z,7.77
2019-03-17T02:18:22.354Z,8.20
2019-03-17T02:20:54.186Z,8.73
2019-03-17T02:23:26.090Z,9.13
2019-03-17T02:25:58.096Z,8.57
2019-03-17T02:28:29.948Z,9.43
2019-03-17T02:31:02.061Z,9.20
2019-03-17T02:33:33.912Z,8.97
2019-03-17T02:36:05.738Z,9.00
2019-03-17T02:38:38.646Z,8.87
2019-03-17T02:41:10.452Z,8.70
2019-03-17T02:43:42.310Z,9.07
2019-03-17T02:46:14.371Z,8.67
2019-03-17T02:48:46.182Z,8.80
2019-03-17T02:51:18.068Z,8.43
2019-03-17T02:53:49.902Z,9.27
2019-03-17T02:56:21.705Z,7.47
2019-03-17T02:58:53.631Z,9.87
2019-03-17T03:01:25.734Z,9.27
2019-03-17T03:03:57.556Z,9.20
2019-03-17T03:06:29.393Z,11.07
2019-03-17T03:09:01.205Z,9.87
2019-03-17T03:11:34.392Z,10.00
2019-03-17T03:14:06.189Z,10.13
2019-03-17T03:16:38.363Z,9.40
2019-03-17T03:19:10.279Z,9.87
2019-03-17T03:21:42.232Z,9.87
2019-03-17T03:24:14.113Z,9.73
2019-03-17T03:26:46.317Z,9.40
2019-03-17T03:29:18.505Z,9.97
2019-03-17T03:31:50.513Z,10.97
2019-03-17T03:34:22.354Z,11.13
2019-03-17T03:36:54.184Z,11.57
2019-03-17T03:39:26.081Z,11.27
2019-03-17T03:41:57.924Z,10.80
2019-03-17T03:44:29.735Z,12.53
2019-03-17T03:47:01.698Z,10.43
2019-03-17T03:49:33.565Z,11.53
2019-03-17T03:52:05.391Z,12.00
2019-03-17T03:54:38.324Z,10.63
2019-03-17T03:57:10.148Z,11.30
2019-03-17T03:59:41.998Z,12.13
2019-03-17T04:02:13.911Z,11.63
2019-03-17T04:04:45.821Z,11.30
2019-03-17T04:07:17.670Z,12.00
2019-03-17T04:09:49.503Z,11.43
2019-03-17T04:12:21.508Z,9.47
2019-03-17T04:14:53.351Z,9.10
2019-03-17T04:17:25.217Z,12.17
2019-03-17T04:19:58.380Z,8.10
2019-03-17T04:22:30.273Z,7.80
2019-03-17T04:25:02.182Z,9.90
2019-03-17T04:27:34.318Z,8.83
2019-03-17T04:30:06.803Z,8.30
2019-03-17T04:32:38.900Z,8.17
2019-03-17T04:35:10.800Z,8.67
2019-03-17T04:37:42.583Z,7.57
2019-03-17T04:40:14.455Z,7.43
2019-03-17T04:43:05.327Z,8.30
2019-03-17T04:45:37.198Z,9.93
2019-03-17T04:48:09.515Z,10.57
2019-03-17T04:50:41.607Z,12.73
2019-03-17T04:53:13.465Z,10.27
2019-03-17T04:55:45.305Z,8.87
2019-03-17T04:58:17.171Z,9.77
2019-03-17T05:00:49.082Z,7.37
2019-03-17T05:03:21.122Z,9.03
2019-03-17T05:05:52.993Z,9.63
2019-03-17T05:08:24.838Z,10.63
2019-03-17T05:10:56.873Z,8.70
2019-03-17T05:13:28.679Z,6.97
2019-03-17T05:16:00.547Z,7.17
2019-03-17T05:18:32.579Z,7.47
2019-03-17T05:21:04.407Z,8.47
2019-03-17T05:23:36.228Z,9.03
2019-03-17T05:26:08.093Z,11.23
2019-03-17T05:28:40.274Z,8.53
2019-03-17T05:31:12.133Z,10.70
2019-03-17T05:33:44.225Z,9.60
2019-03-17T05:36:16.045Z,12.63
2019-03-17T05:38:47.965Z,10.40
2019-03-17T05:41:19.848Z,7.60
2019-03-17T05:43:51.696Z,9.03
2019-03-17T05:46:23.513Z,9.20
2019-03-17T05:48:55.407Z,8.90
2019-03-17T05:51:27.243Z,8.83
2019-03-17T05:54:00.071Z,10.67
2019-03-17T05:56:31.893Z,8.93
2019-03-17T05:59:03.751Z,9.47
2019-03-17T06:01:35.627Z,9.57
2019-03-17T06:04:07.678Z,8.60
2019-03-17T06:06:39.557Z,8.03
2019-03-17T06:09:11.642Z,8.23
2019-03-17T06:11:43.714Z,7.77
2019-03-17T06:14:15.578Z,8.37
2019-03-17T06:16:47.686Z,13.50
2019-03-17T06:19:19.689Z,12.47
2019-03-17T06:21:51.590Z,14.77
2019-03-17T06:24:23.399Z,14.20
2019-03-17T06:26:55.287Z,15.80
2019-03-17T06:29:27.396Z,13.70
2019-03-17T06:31:59.548Z,12.50
2019-03-17T06:34:31.712Z,12.30
2019-03-17T06:37:03.598Z,13.87
2019-03-17T06:39:35.667Z,13.03
2019-03-17T06:42:07.606Z,13.67
2019-03-17T06:44:39.545Z,7.40
2019-03-17T06:47:11.528Z,12.30
2019-03-17T06:49:44.406Z,11.33
2019-03-17T06:52:16.329Z,9.57
2019-03-17T06:54:48.288Z,11.80
2019-03-17T06:57:20.239Z,7.30
2019-03-17T06:59:52.247Z,10.03
2019-03-17T07:02:24.240Z,9.93
2019-03-17T07:04:56.263Z,9.73
2019-03-17T07:07:28.234Z,9.87
2019-03-17T07:10:00.134Z,11.03
2019-03-17T07:12:32.087Z,12.30
2019-03-17T07:15:04.134Z,8.37
2019-03-17T07:17:36.096Z,12.63
2019-03-17T07:20:10.272Z,11.27
2019-03-17T07:22:42.173Z,10.00
2019-03-17T07:25:14.141Z,8.90
2019-03-17T07:27:46.209Z,10.67
2019-03-17T07:30:18.627Z,7.80
2019-03-17T07:32:50.633Z,12.37
2019-03-17T07:35:22.943Z,10.23
2019-03-17T07:37:57.125Z,8.97
2019-03-17T07:40:28.576Z,10.70
2019-03-17T07:43:00.677Z,10.80
2019-03-17T07:45:32.616Z,10.53
2019-03-17T07:48:04.913Z,9.20
2019-03-17T07:50:37.521Z,9.57
2019-03-17T07:53:09.870Z,11.00
2019-03-17T07:55:41.973Z,9.27
2019-03-17T07:58:14.003Z,8.93
2019-03-17T08:00:46.225Z,8.80
2019-03-17T08:03:18.267Z,9.90
2019-03-17T08:05:50.648Z,6.50
2019-03-17T08:08:22.780Z,8.70
2019-03-17T08:10:54.907Z,9.40
2019-03-17T08:13:27.048Z,9.13
2019-03-17T08:15:58.938Z,8.30
2019-03-17T08:18:32.236Z,8.20
2019-03-17T08:21:04.612Z,5.57
2019-03-17T08:23:36.836Z,7.57
2019-03-17T08:26:09.121Z,9.57
2019-03-17T08:28:41.358Z,5.97
2019-03-17T08:31:13.648Z,8.33
2019-03-17T08:33:45.801Z,7.83
2019-03-17T08:36:18.039Z,7.83
2019-03-17T08:38:50.449Z,6.80
2019-03-17T08:41:22.513Z,6.73
2019-03-17T08:43:54.760Z,9.13
2019-03-17T08:46:27.074Z,7.40
2019-03-17T08:48:59.174Z,9.03
2019-03-17T08:51:31.433Z,6.70
2019-03-17T08:54:03.633Z,7.20
2019-03-17T08:56:35.755Z,8.50
2019-03-17T08:59:07.785Z,7.50
2019-03-17T09:01:39.680Z,6.33
2019-03-17T09:04:11.697Z,8.00
2019-03-17T09:06:43.949Z,7.70
2019-03-17T09:09:15.870Z,8.80
2019-03-17T09:11:48.107Z,7.07
2019-03-17T09:14:20.683Z,5.60
2019-03-17T09:16:53.464Z,6.37
2019-03-17T09:19:25.885Z,6.77
2019-03-17T09:21:58.330Z,7.30
2019-03-17T09:24:30.904Z,5.63
2019-03-17T09:27:04.650Z,5.87
2019-03-17T09:29:37.526Z,4.40
2019-03-17T09:32:10.593Z,6.50
2019-03-17T09:34:42.766Z,6.03
2019-03-17T09:37:15.543Z,5.60
2019-03-17T09:39:47.554Z,6.30
2019-03-17T09:42:19.942Z,7.10
2019-03-17T09:44:52.760Z,4.80
2019-03-17T09:47:25.577Z,4.63
2019-03-17T09:49:58.636Z,4.77
2019-03-17T09:52:32.108Z,7.63
2019-03-17T09:55:06.772Z,5.97
2019-03-17T09:57:39.573Z,6.07
2019-03-17T10:00:14.295Z,6.50
2019-03-17T10:02:47.209Z,5.83
2019-03-17T10:05:19.966Z,4.13
2019-03-17T10:07:53.401Z,4.90
2019-03-17T10:10:26.294Z,6.20
2019-03-17T10:12:59.209Z,4.63
2019-03-17T10:15:32.771Z,4.90
2019-03-17T10:18:05.916Z,5.10
2019-03-17T10:20:39.138Z,6.07
2019-03-17T10:23:12.599Z,5.93
2019-03-17T10:25:45.594Z,6.47
2019-03-17T10:28:18.408Z,6.77
2019-03-17T10:30:51.672Z,5.50
2019-03-17T10:33:24.938Z,5.13
2019-03-17T10:35:57.785Z,6.60
2019-03-17T10:38:30.613Z,5.90
2019-03-17T10:41:03.408Z,4.83
2019-03-17T10:43:36.433Z,4.63
2019-03-17T10:46:09.402Z,5.77
2019-03-17T10:48:42.348Z,4.40
2019-03-17T10:51:15.337Z,5.53
2019-03-17T10:53:48.992Z,4.10
2019-03-17T10:56:22.394Z,5.20
2019-03-17T10:58:55.115Z,3.50
2019-03-17T11:01:27.705Z,4.47
2019-03-17T11:04:00.260Z,4.13
2019-03-17T11:06:32.327Z,4.23
2019-03-17T11:09:05.514Z,3.83
2019-03-17T11:11:37.688Z,4.10
2019-03-17T11:14:09.686Z,5.17
2019-03-17T11:16:41.903Z,4.60
2019-03-17T11:19:14.343Z,4.37
2019-03-17T11:21:46.857Z,2.97
2019-03-17T11:24:19.762Z,3.80
2019-03-17T11:26:51.813Z,3.53
2019-03-17T11:29:24.247Z,3.10
2019-03-17T11:31:56.471Z,3.30
2019-03-17T11:34:29.623Z,4.30
2019-03-17T11:37:01.996Z,3.10
2019-03-17T11:39:38.050Z,3.87
2019-03-17T11:42:08.217Z,3.70
2019-03-17T11:44:40.368Z,3.07
2019-03-17T11:47:12.649Z,3.07
2019-03-17T11:49:46.164Z,3.23
2019-03-17T11:52:19.593Z,3.13
2019-03-17T11:54:52.743Z,3.53
2019-03-17T11:57:24.762Z,3.33
2019-03-17T11:59:57.355Z,3.20
2019-03-17T12:02:29.703Z,2.70
2019-03-17T12:05:02.053Z,2.67
2019-03-17T12:07:34.302Z,2.10
2019-03-17T12:10:07.672Z,2.23
2019-03-17T12:12:39.649Z,2.43
2019-03-17T12:15:14.712Z,2.07
2019-03-17T12:17:46.903Z,2.63
2019-03-17T12:20:18.950Z,2.77
2019-03-17T12:22:51.194Z,2.83
2019-03-17T12:25:23.882Z,2.17
2019-03-17T12:27:56.155Z,3.10
2019-03-17T12:30:28.690Z,2.00
2019-03-17T12:33:01.258Z,2.23
2019-03-17T12:35:33.584Z,2.13
2019-03-17T12:38:05.682Z,2.40
2019-03-17T12:40:38.758Z,2.77
2019-03-17T12:43:10.793Z,2.77
2019-03-17T12:45:42.721Z,2.67
2019-03-17T12:48:15.774Z,2.60
2019-03-17T12:50:47.939Z,3.10
2019-03-17T12:53:20.242Z,2.67
2019-03-17T12:55:52.599Z,2.72
2019-03-17T12:58:24.773Z,2.70
2019-03-17T13:00:57.001Z,2.75
2019-03-17T13:03:29.071Z,2.33
2019-03-17T13:06:01.625Z,2.52
2019-03-17T13:08:34.146Z,2.52
2019-03-17T13:11:06.274Z,2.42
2019-03-17T13:13:38.420Z,2.80
2019-03-17T13:16:10.808Z,2.47
2019-03-17T13:18:43.341Z,2.65
2019-03-17T13:21:15.641Z,2.10
2019-03-17T13:23:48.552Z,2.62
2019-03-17T13:26:20.986Z,2.60
2019-03-17T13:28:53.215Z,2.95
2019-03-17T13:31:25.708Z,2.33
2019-03-17T13:33:59.224Z,1.40
2019-03-17T13:36:32.208Z,2.30
2019-03-17T13:39:05.203Z,2.52
2019-03-17T13:41:37.745Z,2.05
2019-03-17T13:44:09.867Z,2.90
2019-03-17T13:46:42.025Z,1.60
2019-03-17T13:49:14.384Z,2.42
2019-03-17T13:51:46.362Z,1.95
2019-03-17T13:54:18.489Z,1.80
2019-03-17T13:56:50.609Z,2.27
2019-03-17T13:59:23.279Z,1.98
2019-03-17T14:01:55.405Z,2.27
2019-03-17T14:04:27.531Z,1.70
2019-03-17T14:06:59.574Z,1.52
2019-03-17T14:09:31.591Z,2.20
2019-03-17T14:12:03.915Z,2.10
2019-03-17T14:14:36.271Z,1.77
2019-03-17T14:17:08.722Z,2.20
2019-03-17T14:19:41.014Z,1.90
2019-03-17T14:22:13.139Z,1.70
2019-03-17T14:24:45.244Z,1.65
2019-03-17T14:27:17.511Z,2.45
2019-03-17T14:29:49.576Z,1.82
2019-03-17T14:32:21.555Z,2.08
2019-03-17T14:34:53.461Z,1.92
2019-03-17T14:37:25.659Z,2.05
2019-03-17T14:39:57.591Z,1.90
2019-03-17T14:42:31.112Z,2.12
2019-03-17T14:45:03.027Z,1.75
2019-03-17T14:47:35.005Z,1.95
2019-03-17T14:50:08.883Z,1.80
2019-03-17T14:52:40.954Z,1.60
2019-03-17T14:55:13.045Z,2.35
2019-03-17T14:57:45.367Z,2.10
2019-03-17T15:00:19.783Z,2.45
2019-03-17T15:02:52.271Z,2.10
2019-03-17T15:05:25.365Z,2.47
2019-03-17T15:07:57.756Z,3.58
2019-03-17T15:10:29.838Z,2.65
2019-03-17T15:13:02.245Z,2.20
2019-03-17T15:15:34.201Z,2.12
2019-03-17T15:18:06.162Z,2.10
2019-03-17T15:20:38.165Z,2.37
2019-03-17T15:23:10.218Z,2.17
2019-03-17T15:25:42.276Z,2.15
2019-03-17T15:28:14.685Z,2.22
2019-03-17T15:31:00.546Z,2.00
2019-03-17T15:33:20.214Z,1.82
2019-03-17T15:35:52.218Z,2.00
2019-03-17T15:38:24.292Z,2.27
2019-03-17T15:40:56.351Z,2.20
2019-03-17T15:43:28.701Z,2.83
2019-03-17T15:46:02.346Z,2.25
2019-03-17T15:48:34.337Z,2.02
2019-03-17T15:51:19.170Z,2.20
2019-03-17T15:53:39.966Z,1.90
2019-03-17T15:56:11.973Z,1.90
2019-03-17T15:58:44.216Z,1.62
2019-03-17T16:01:16.253Z,3.72
2019-03-17T16:03:48.715Z,2.60
2019-03-17T16:06:20.892Z,2.17
2019-03-17T16:08:53.261Z,2.37
2019-03-17T16:11:31.185Z,2.92
2019-03-17T16:14:00.037Z,3.47
2019-03-17T16:16:32.384Z,5.00
2019-03-17T16:19:04.660Z,6.42
2019-03-17T16:21:36.841Z,5.65
2019-03-17T16:24:08.836Z,4.40
2019-03-17T16:26:40.809Z,3.90
2019-03-17T16:29:13.159Z,4.17
2019-03-17T16:31:45.299Z,4.45
2019-03-17T16:34:17.548Z,4.22
2019-03-17T16:36:49.850Z,3.98
2019-03-17T16:39:22.274Z,3.60
2019-03-17T16:41:54.444Z,3.77
2019-03-17T16:44:26.708Z,4.00
2019-03-17T16:46:58.708Z,3.97
2019-03-17T16:49:30.727Z,3.87
2019-03-17T16:52:02.989Z,3.40
2019-03-17T16:54:34.968Z,4.00
2019-03-17T16:57:07.067Z,3.75
2019-03-17T16:59:40.409Z,4.10
2019-03-17T17:02:13.051Z,4.70
2019-03-17T17:04:45.213Z,5.93
2019-03-17T17:07:17.210Z,7.03
2019-03-17T17:09:49.567Z,6.20
2019-03-17T17:12:21.608Z,6.10
2019-03-17T17:14:54.068Z,6.10
2019-03-17T17:17:26.218Z,5.53
2019-03-17T17:19:58.532Z,5.87
2019-03-17T17:22:31.920Z,7.27
2019-03-17T17:25:04.493Z,7.20
2019-03-17T17:27:36.588Z,5.53
2019-03-17T17:30:11.023Z,6.20
2019-03-17T17:32:43.409Z,5.23
2019-03-17T17:35:15.614Z,5.80
2019-03-17T17:37:47.556Z,6.63
2019-03-17T17:40:19.969Z,6.90
2019-03-17T17:42:52.092Z,7.10
2019-03-17T17:45:24.709Z,8.73
2019-03-17T17:47:57.002Z,8.53
2019-03-17T17:50:29.621Z,10.03
2019-03-17T17:53:01.659Z,9.53
2019-03-17T17:55:34.120Z,9.40
2019-03-17T17:58:06.225Z,9.60
2019-03-17T18:00:40.992Z,10.30
2019-03-17T18:03:13.094Z,10.37
2019-03-17T18:05:45.166Z,8.37
2019-03-17T18:08:17.820Z,5.67
2019-03-17T18:10:50.451Z,7.23
2019-03-17T18:13:22.848Z,7.50
2019-03-17T18:15:55.170Z,8.60
2019-03-17T18:18:27.309Z,8.13
2019-03-17T18:20:59.852Z,9.87
2019-03-17T18:23:33.862Z,10.37
2019-03-17T18:26:07.144Z,10.53
2019-03-17T18:28:40.071Z,10.17
2019-03-17T18:31:12.910Z,11.30
2019-03-17T18:33:45.271Z,12.70
2019-03-17T18:36:18.239Z,13.33
2019-03-17T18:38:51.389Z,13.63
2019-03-17T18:41:24.309Z,12.70
2019-03-17T18:43:57.206Z,13.27
2019-03-17T18:46:29.882Z,12.33
2019-03-17T18:49:02.286Z,12.50
2019-03-17T18:51:35.093Z,12.47
2019-03-17T18:54:08.236Z,10.40
2019-03-17T18:56:40.730Z,11.03
2019-03-17T18:59:13.340Z,11.60
2019-03-17T19:01:46.248Z,11.33
2019-03-17T19:04:18.620Z,10.50
2019-03-17T19:06:51.240Z,11.67
2019-03-17T19:09:24.017Z,11.33
2019-03-17T19:11:56.817Z,11.27
2019-03-17T19:14:29.284Z,13.20
2019-03-17T19:17:02.307Z,13.30
2019-03-17T19:19:34.824Z,14.00
2019-03-17T19:22:07.257Z,14.70
2019-03-17T19:24:40.590Z,14.63
2019-03-17T19:27:12.793Z,15.83
2019-03-17T19:29:45.236Z,15.90
2019-03-17T19:32:18.069Z,19.60
2019-03-17T19:34:50.462Z,18.97
2019-03-17T19:37:22.900Z,13.23
2019-03-17T19:39:54.960Z,11.13
2019-03-17T19:42:27.806Z,12.30
2019-03-17T19:45:00.067Z,16.37
2019-03-17T19:47:32.311Z,13.00
2019-03-17T19:50:04.946Z,13.77
2019-03-17T19:52:37.461Z,12.93
2019-03-17T19:55:10.366Z,13.00
2019-03-17T19:57:42.592Z,12.53
2019-03-17T20:00:16.309Z,13.77
2019-03-17T20:02:48.919Z,17.20
2019-03-17T20:05:21.160Z,13.97
2019-03-17T20:07:53.217Z,14.27
2019-03-17T20:10:25.439Z,15.80
2019-03-17T20:13:10.287Z,17.03
2019-03-17T20:15:31.584Z,16.63
2019-03-17T20:18:04.917Z,15.23
2019-03-17T20:20:36.994Z,16.40
2019-03-17T20:23:09.177Z,18.13
2019-03-17T20:25:41.279Z,16.03
2019-03-17T20:28:13.568Z,17.10
2019-03-17T20:30:45.681Z,17.80
2019-03-17T20:33:18.141Z,16.10
2019-03-17T20:35:50.426Z,17.00
2019-03-17T20:38:23.114Z,16.93
2019-03-17T20:40:55.858Z,17.07
2019-03-17T20:43:34.868Z,18.23
2019-03-17T20:46:02.241Z,16.60
2019-03-17T20:48:35.690Z,18.10
2019-03-17T20:51:08.530Z,16.70
2019-03-17T20:53:41.517Z,16.13
2019-03-17T20:56:15.159Z,15.70
2019-03-17T20:58:48.339Z,16.77
2019-03-17T21:01:20.984Z,16.30
2019-03-17T21:03:54.277Z,18.83
2019-03-17T21:06:26.905Z,22.63
2019-03-17T21:09:00.017Z,19.97
2019-03-17T21:11:33.577Z,19.03
2019-03-17T21:14:06.521Z,17.83
2019-03-17T21:16:39.584Z,16.47
2019-03-17T21:19:13.130Z,16.03
2019-03-17T21:21:46.312Z,16.67
2019-03-17T21:24:19.237Z,15.03
2019-03-17T21:26:52.127Z,15.27
2019-03-17T21:29:25.424Z,15.07
2019-03-17T21:31:59.265Z,20.17
2019-03-17T21:34:32.620Z,21.27
2019-03-17T21:37:05.813Z,20.37
2019-03-17T21:39:38.831Z,20.63
2019-03-17T21:42:11.818Z,20.47
2019-03-17T21:44:45.026Z,20.33
2019-03-17T21:47:17.983Z,20.67
2019-03-17T21:49:50.682Z,21.13
2019-03-17T21:52:23.526Z,24.53
2019-03-17T21:54:56.102Z,20.63
2019-03-17T21:57:28.698Z,20.73
2019-03-17T22:00:01.361Z,17.50
2019-03-17T22:02:34.434Z,17.37
2019-03-17T22:05:07.564Z,11.33
2019-03-17T22:07:49.620Z,10.03
2019-03-17T22:10:16.257Z,9.03
2019-03-17T22:12:50.091Z,9.77
2019-03-17T22:15:23.150Z,7.63
2019-03-17T22:17:56.631Z,13.10
2019-03-17T22:20:29.591Z,9.23
2019-03-17T22:23:02.537Z,11.67
2019-03-17T22:25:35.369Z,12.00
2019-03-17T22:28:08.934Z,9.33
2019-03-17T22:30:42.159Z,11.30
2019-03-17T22:33:15.090Z,8.77
2019-03-17T22:35:47.888Z,8.07
2019-03-17T22:38:20.857Z,7.60
2019-03-17T22:40:54.298Z,6.23
2019-03-17T22:43:27.427Z,6.13
2019-03-17T22:46:00.891Z,6.17
2019-03-17T22:48:33.786Z,5.50
2019-03-17T22:51:07.132Z,3.30
2019-03-17T22:53:40.303Z,4.20
2019-03-17T22:56:13.609Z,3.37
2019-03-17T22:58:46.446Z,3.27
2019-03-17T23:01:19.580Z,2.93
2019-03-17T23:03:52.337Z,2.60
2019-03-17T23:06:25.229Z,2.40
2019-03-17T23:08:58.034Z,2.70
2019-03-17T23:11:31.246Z,2.47
2019-03-17T23:14:04.316Z,2.23
2019-03-17T23:16:37.117Z,2.00
2019-03-17T23:19:09.779Z,2.23
2019-03-17T23:21:42.761Z,2.73
2019-03-17T23:24:15.534Z,2.47
2019-03-17T23:26:48.425Z,2.27
2019-03-17T23:29:21.168Z,1.67
2019-03-17T23:31:54.453Z,1.53
2019-03-17T23:34:27.087Z,2.00
2019-03-17T23:37:00.131Z,2.10
2019-03-17T23:39:32.617Z,3.20
2019-03-17T23:42:06.322Z,2.20
2019-03-17T23:44:48.608Z,1.80
2019-03-17T23:47:13.180Z,2.03
2019-03-17T23:49:46.273Z,2.07
2019-03-17T23:52:18.976Z,2.10
2019-03-17T23:54:51.244Z,1.70
2019-03-17T23:57:23.515Z,1.37
2019-03-17T23:59:55.761Z,1.03
